createdAt,value
2022-08-17T00:01:41.675Z,14.97
2022-08-17T00:04:22.491Z,15.05
2022-08-17T00:06:53.448Z,14.99
2022-08-17T00:09:22.895Z,14.87
2022-08-17T00:12:41.674Z,14.85
2022-08-17T00:14:43.735Z,14.89
2022-08-17T00:17:12.987Z,14.83
2022-08-17T00:19:42.361Z,14.81
2022-08-17T00:22:33.253Z,14.75
2022-08-17T00:25:00.809Z,14.75
2022-08-17T00:27:33.739Z,14.77
2022-08-17T00:30:03.120Z,14.72
2022-08-17T00:33:15.012Z,14.65
2022-08-17T00:35:29.719Z,14.64
2022-08-17T00:37:58.999Z,14.61
2022-08-17T00:40:44.630Z,14.62
2022-08-17T00:43:22.522Z,14.48
2022-08-17T00:45:51.938Z,14.61
2022-08-17T00:48:27.218Z,14.34
2022-08-17T00:51:06.565Z,14.47
2022-08-17T00:53:42.012Z,14.40
2022-08-17T00:56:18.729Z,14.28
2022-08-17T00:58:53.169Z,14.64
2022-08-17T01:01:23.074Z,14.58
2022-08-17T01:03:57.047Z,14.71
2022-08-17T01:06:30.942Z,14.70
2022-08-17T01:09:02.216Z,14.71
2022-08-17T01:11:33.284Z,14.71
2022-08-17T01:14:04.885Z,14.21
2022-08-17T01:16:34.878Z,14.55
2022-08-17T01:19:12.050Z,14.65
2022-08-17T01:22:00.159Z,14.71
2022-08-17T01:24:31.735Z,14.64
2022-08-17T01:27:10.185Z,14.70
2022-08-17T01:29:45.438Z,14.68
2022-08-17T01:32:15.501Z,14.81
2022-08-17T01:34:50.480Z,14.84
2022-08-17T01:37:28.944Z,14.90
2022-08-17T01:40:05.708Z,14.82
2022-08-17T01:42:43.022Z,14.91
2022-08-17T01:45:18.506Z,14.89
2022-08-17T01:47:48.209Z,14.76
2022-08-17T01:50:23.442Z,14.87
2022-08-17T01:53:01.302Z,14.86
2022-08-17T01:55:39.590Z,14.86
2022-08-17T01:58:09.931Z,14.79
2022-08-17T02:00:59.418Z,14.74
2022-08-17T02:03:32.450Z,14.73
2022-08-17T02:06:02.010Z,14.61
2022-08-17T02:08:39.547Z,14.76
2022-08-17T02:11:23.659Z,14.61
2022-08-17T02:13:57.947Z,14.61
2022-08-17T02:16:37.376Z,14.84
2022-08-17T02:19:11.412Z,14.80
2022-08-17T02:21:44.101Z,14.82
2022-08-17T02:24:58.170Z,14.76
2022-08-17T02:27:10.962Z,14.78
2022-08-17T02:29:40.606Z,14.78
2022-08-17T02:32:28.163Z,14.63
2022-08-17T02:35:00.505Z,14.69
2022-08-17T02:37:31.228Z,14.67
2022-08-17T02:40:00.761Z,14.73
2022-08-17T02:42:34.869Z,14.64
2022-08-17T02:45:06.499Z,14.63
2022-08-17T02:47:36.853Z,14.77
2022-08-17T02:50:09.200Z,14.78
2022-08-17T02:52:43.822Z,14.80
2022-08-17T02:55:34.362Z,14.82
2022-08-17T02:58:06.011Z,14.86
2022-08-17T03:00:38.604Z,14.86
2022-08-17T03:03:09.472Z,14.77
2022-08-17T03:05:41.915Z,14.81
2022-08-17T03:08:13.122Z,14.94
2022-08-17T03:10:43.437Z,14.67
2022-08-17T03:13:15.870Z,14.94
2022-08-17T03:15:47.234Z,14.88
2022-08-17T03:18:25.511Z,14.94
2022-08-17T03:20:59.221Z,14.91
2022-08-17T03:23:30.403Z,14.94
2022-08-17T03:26:00.334Z,14.86
2022-08-17T03:28:31.620Z,14.89
2022-08-17T03:31:00.927Z,14.84
2022-08-17T03:33:30.731Z,14.95
2022-08-17T03:36:00.373Z,14.49
2022-08-17T03:38:29.660Z,14.98
2022-08-17T03:41:09.305Z,14.92
2022-08-17T03:43:40.045Z,14.96
2022-08-17T03:46:35.237Z,14.91
2022-08-17T03:49:23.706Z,15.00
2022-08-17T03:52:10.700Z,14.94
2022-08-17T03:54:58.179Z,14.81
2022-08-17T03:57:28.459Z,14.83
2022-08-17T03:59:59.879Z,14.85
2022-08-17T04:02:32.881Z,14.83
2022-08-17T04:05:02.686Z,14.79
2022-08-17T04:07:33.280Z,14.80
2022-08-17T04:10:02.675Z,14.86
2022-08-17T04:12:47.197Z,14.74
2022-08-17T04:15:19.446Z,14.80
2022-08-17T04:17:49.399Z,14.79
2022-08-17T04:20:22.443Z,14.88
2022-08-17T04:23:02.265Z,14.78
2022-08-17T04:25:33.826Z,14.70
2022-08-17T04:28:04.014Z,14.75
2022-08-17T04:30:40.473Z,14.79
2022-08-17T04:33:14.144Z,14.83
2022-08-17T04:35:47.698Z,14.76
2022-08-17T04:38:20.942Z,14.70
2022-08-17T04:41:08.584Z,14.86
2022-08-17T04:43:40.922Z,14.80
2022-08-17T04:46:15.896Z,14.88
2022-08-17T04:48:50.581Z,14.93
2022-08-17T04:51:23.754Z,14.92
2022-08-17T04:53:56.565Z,14.77
2022-08-17T04:56:27.999Z,14.78
2022-08-17T04:59:01.408Z,14.69
2022-08-17T05:01:37.150Z,14.78
2022-08-17T05:04:32.982Z,14.63
2022-08-17T05:06:58.814Z,14.74
2022-08-17T05:09:28.244Z,14.70
2022-08-17T05:12:01.362Z,14.70
2022-08-17T05:14:32.307Z,14.64
2022-08-17T05:17:07.323Z,14.62
2022-08-17T05:19:41.248Z,14.66
2022-08-17T05:22:10.647Z,14.72
2022-08-17T05:24:43.690Z,14.71
2022-08-17T05:27:23.503Z,14.69
2022-08-17T05:29:52.849Z,14.64
2022-08-17T05:32:39.321Z,14.44
2022-08-17T05:35:10.401Z,14.56
2022-08-17T05:37:39.960Z,14.61
2022-08-17T05:40:10.762Z,14.60
2022-08-17T05:42:40.181Z,14.63
2022-08-17T05:45:11.157Z,14.66
2022-08-17T05:47:42.451Z,14.67
2022-08-17T05:50:25.737Z,14.39
2022-08-17T05:53:07.173Z,14.62
2022-08-17T05:55:46.955Z,14.64
2022-08-17T05:58:26.534Z,14.60
2022-08-17T06:01:09.025Z,14.62
2022-08-17T06:03:50.851Z,14.57
2022-08-17T06:06:34.782Z,14.61
2022-08-17T06:09:26.594Z,14.63
2022-08-17T06:12:14.440Z,14.61
2022-08-17T06:15:04.995Z,14.54
2022-08-17T06:17:35.178Z,14.55
2022-08-17T06:20:11.797Z,14.64
2022-08-17T06:22:47.303Z,14.38
2022-08-17T06:25:20.685Z,14.58
2022-08-17T06:27:55.712Z,14.54
2022-08-17T06:30:29.101Z,14.64
2022-08-17T06:33:25.295Z,14.64
2022-08-17T06:36:09.231Z,14.67
2022-08-17T06:38:53.669Z,14.71
2022-08-17T06:41:36.509Z,14.67
2022-08-17T06:44:42.258Z,14.74
2022-08-17T06:47:28.898Z,14.63
2022-08-17T06:50:11.835Z,14.55
2022-08-17T06:52:55.239Z,14.57
2022-08-17T06:55:34.539Z,14.71
2022-08-17T06:58:16.503Z,14.76
2022-08-17T07:00:49.129Z,14.77
2022-08-17T07:03:30.101Z,14.69
2022-08-17T07:06:05.096Z,14.88
2022-08-17T07:08:56.783Z,14.99
2022-08-17T07:11:33.114Z,14.97
2022-08-17T07:14:31.608Z,15.02
2022-08-17T07:17:07.658Z,15.14
2022-08-17T07:19:41.161Z,15.05
2022-08-17T07:22:27.980Z,15.03
2022-08-17T07:25:01.618Z,15.13
2022-08-17T07:27:37.317Z,15.07
2022-08-17T07:30:11.467Z,15.08
2022-08-17T07:32:45.347Z,15.16
2022-08-17T07:35:21.297Z,15.18
2022-08-17T07:37:54.536Z,15.10
2022-08-17T07:40:35.399Z,15.16
2022-08-17T07:43:24.041Z,15.08
2022-08-17T07:46:32.872Z,15.16
2022-08-17T07:49:23.450Z,15.17
2022-08-17T07:52:24.286Z,15.23
2022-08-17T07:54:51.267Z,15.27
2022-08-17T07:57:37.210Z,15.23
2022-08-17T08:00:32.301Z,15.34
2022-08-17T08:03:17.467Z,15.39
2022-08-17T08:05:57.504Z,15.37
2022-08-17T08:08:33.639Z,15.33
2022-08-17T08:11:08.808Z,15.39
2022-08-17T08:13:43.921Z,15.37
2022-08-17T08:16:29.383Z,15.43
2022-08-17T08:19:01.456Z,15.48
2022-08-17T08:21:44.570Z,15.52
2022-08-17T08:24:49.313Z,15.52
2022-08-17T08:27:32.126Z,15.61
2022-08-17T08:30:10.096Z,15.64
2022-08-17T08:33:04.572Z,15.61
2022-08-17T08:35:41.446Z,15.70
2022-08-17T08:38:25.565Z,15.80
2022-08-17T08:41:19.330Z,15.89
2022-08-17T08:44:03.776Z,15.87
2022-08-17T08:46:44.410Z,15.93
2022-08-17T08:50:05.810Z,16.04
2022-08-17T08:53:01.491Z,16.08
2022-08-17T08:55:45.051Z,16.22
2022-08-17T08:58:32.007Z,16.23
2022-08-17T09:01:22.341Z,16.29
2022-08-17T09:04:24.730Z,16.44
2022-08-17T09:07:12.022Z,16.49
2022-08-17T09:09:59.757Z,16.63
2022-08-17T09:12:37.782Z,16.67
2022-08-17T09:15:15.944Z,16.74
2022-08-17T09:18:14.911Z,16.69
2022-08-17T09:20:56.783Z,16.76
2022-08-17T09:23:34.328Z,16.81
2022-08-17T09:26:22.634Z,16.87
2022-08-17T09:29:00.357Z,16.98
2022-08-17T09:31:47.080Z,16.97
2022-08-17T09:34:33.937Z,16.87
2022-08-17T09:37:20.003Z,17.12
2022-08-17T09:40:00.452Z,17.11
2022-08-17T09:42:38.978Z,17.26
2022-08-17T09:45:29.509Z,17.00
2022-08-17T09:48:08.062Z,17.23
2022-08-17T09:51:04.200Z,17.24
2022-08-17T09:53:38.774Z,17.37
2022-08-17T09:56:33.025Z,17.39
2022-08-17T09:59:38.288Z,17.52
2022-08-17T10:02:41.555Z,17.49
2022-08-17T10:05:18.019Z,17.61
2022-08-17T10:07:56.266Z,17.65
2022-08-17T10:10:37.695Z,17.69
2022-08-17T10:13:27.195Z,17.68
2022-08-17T10:16:07.857Z,17.83
2022-08-17T10:18:53.134Z,17.97
2022-08-17T10:21:42.523Z,17.98
2022-08-17T10:24:36.661Z,18.10
2022-08-17T10:27:14.484Z,18.20
2022-08-17T10:29:51.579Z,18.06
2022-08-17T10:32:32.748Z,17.71
2022-08-17T10:35:34.094Z,18.16
2022-08-17T10:38:31.979Z,18.20
2022-08-17T10:41:17.548Z,18.31
2022-08-17T10:44:37.289Z,18.40
2022-08-17T10:47:05.809Z,18.59
2022-08-17T10:49:36.531Z,18.61
2022-08-17T10:52:50.204Z,18.67
2022-08-17T10:55:21.669Z,18.83
2022-08-17T10:57:54.949Z,18.86
2022-08-17T11:01:05.935Z,18.84
2022-08-17T11:03:35.333Z,18.90
2022-08-17T11:06:19.260Z,19.05
2022-08-17T11:09:29.788Z,19.07
2022-08-17T11:12:21.004Z,19.19
2022-08-17T11:15:23.267Z,19.13
2022-08-17T11:18:11.454Z,19.26
2022-08-17T11:21:21.512Z,19.26
2022-08-17T11:24:16.691Z,19.34
2022-08-17T11:27:02.252Z,19.41
2022-08-17T11:29:38.750Z,19.32
2022-08-17T11:32:28.366Z,19.32
2022-08-17T11:35:23.359Z,19.37
2022-08-17T11:38:15.961Z,19.30
2022-08-17T11:41:14.578Z,19.36
2022-08-17T11:44:14.339Z,19.49
2022-08-17T11:47:29.909Z,19.42
2022-08-17T11:50:54.998Z,19.53
2022-08-17T11:57:22.475Z,19.90
2022-08-17T12:00:01.157Z,20.25
2022-08-17T12:02:48.242Z,20.51
2022-08-17T12:05:35.408Z,20.77
2022-08-17T12:08:19.800Z,21.07
2022-08-17T12:11:05.648Z,21.18
2022-08-17T12:13:44.212Z,21.31
2022-08-17T12:16:17.822Z,21.26
2022-08-17T12:18:53.676Z,21.22
2022-08-17T12:21:46.341Z,21.08
2022-08-17T12:24:55.814Z,21.17
2022-08-17T12:27:59.715Z,21.22
2022-08-17T12:30:25.902Z,21.23
2022-08-17T12:32:55.613Z,21.15
2022-08-17T12:35:33.190Z,21.17
2022-08-17T12:38:31.814Z,21.14
2022-08-17T12:41:25.725Z,21.07
2022-08-17T12:44:02.319Z,21.16
2022-08-17T12:46:48.619Z,21.17
2022-08-17T12:49:28.066Z,21.30
2022-08-17T12:52:14.842Z,21.32
2022-08-17T12:54:53.236Z,21.43
2022-08-17T12:57:26.726Z,21.41
2022-08-17T13:00:00.942Z,21.59
2022-08-17T13:02:47.746Z,21.61
2022-08-17T13:05:25.671Z,21.78
2022-08-17T13:07:56.946Z,21.78
2022-08-17T13:10:33.039Z,21.81
2022-08-17T13:13:06.034Z,21.99
2022-08-17T13:15:44.985Z,22.24
2022-08-17T13:18:42.105Z,22.73
2022-08-17T13:21:26.806Z,23.49
2022-08-17T13:24:03.570Z,24.10
2022-08-17T13:26:38.700Z,24.45
2022-08-17T13:29:10.355Z,24.77
2022-08-17T13:31:52.257Z,24.82
2022-08-17T13:34:44.553Z,24.81
2022-08-17T13:37:34.588Z,24.80
2022-08-17T13:40:30.462Z,24.69
2022-08-17T13:43:03.449Z,24.53
2022-08-17T13:45:38.931Z,24.23
2022-08-17T13:48:14.563Z,24.11
2022-08-17T13:50:47.504Z,23.82
2022-08-17T13:53:27.888Z,23.55
2022-08-17T13:56:02.440Z,23.41
2022-08-17T13:58:36.599Z,23.20
2022-08-17T14:01:31.997Z,23.07
2022-08-17T14:04:06.339Z,23.02
2022-08-17T14:06:51.963Z,22.94
2022-08-17T14:09:26.874Z,22.86
2022-08-17T14:11:58.250Z,22.70
2022-08-17T14:14:31.784Z,22.59
2022-08-17T14:17:01.333Z,22.52
2022-08-17T14:19:30.725Z,22.31
2022-08-17T14:22:01.681Z,22.34
2022-08-17T14:24:33.836Z,22.37
2022-08-17T14:27:05.685Z,22.42
2022-08-17T14:29:37.206Z,22.42
2022-08-17T14:32:18.260Z,22.43
2022-08-17T14:34:49.710Z,22.40
2022-08-17T14:37:19.748Z,22.48
2022-08-17T14:39:49.628Z,22.53
2022-08-17T14:42:18.929Z,22.52
2022-08-17T14:44:52.266Z,22.54
2022-08-17T14:47:24.938Z,22.56
2022-08-17T14:49:56.057Z,22.63
2022-08-17T14:52:25.340Z,22.60
2022-08-17T14:54:57.590Z,22.60
2022-08-17T14:57:34.266Z,22.58
2022-08-17T15:00:08.313Z,22.63
2022-08-17T15:02:48.240Z,22.63
2022-08-17T15:05:20.532Z,22.74
2022-08-17T15:07:50.108Z,22.80
2022-08-17T15:10:20.094Z,23.01
2022-08-17T15:12:51.422Z,23.32
2022-08-17T15:15:24.967Z,23.67
2022-08-17T15:17:54.339Z,24.10
2022-08-17T15:20:27.735Z,24.46
2022-08-17T15:22:59.482Z,25.00
2022-08-17T15:25:34.850Z,25.46
2022-08-17T15:28:04.502Z,25.78
2022-08-17T15:30:37.146Z,26.11
2022-08-17T15:33:06.749Z,26.43
2022-08-17T15:35:39.082Z,26.55
2022-08-17T15:38:12.638Z,26.69
2022-08-17T15:40:45.724Z,26.96
2022-08-17T15:43:27.289Z,27.11
2022-08-17T15:46:10.772Z,27.20
2022-08-17T15:48:44.723Z,27.17
2022-08-17T15:51:16.773Z,27.06
2022-08-17T15:53:48.155Z,26.85
2022-08-17T15:56:18.211Z,26.45
2022-08-17T15:58:50.044Z,26.24
2022-08-17T16:03:01.512Z,26.19
2022-08-17T16:04:26.765Z,26.15
2022-08-17T16:07:01.036Z,25.74
2022-08-17T16:09:30.287Z,25.61
2022-08-17T16:11:59.721Z,25.26
2022-08-17T16:14:33.845Z,24.90
2022-08-17T16:17:40.042Z,24.19
2022-08-17T16:19:56.976Z,23.99
2022-08-17T16:22:34.714Z,23.70
2022-08-17T16:25:06.921Z,23.51
2022-08-17T16:27:36.384Z,23.38
2022-08-17T16:30:08.044Z,23.25
2022-08-17T16:32:38.876Z,23.16
2022-08-17T16:35:12.429Z,22.96
2022-08-17T16:37:45.626Z,22.86
2022-08-17T16:40:16.913Z,22.77
2022-08-17T16:42:49.370Z,22.59
2022-08-17T16:45:24.357Z,22.43
2022-08-17T16:47:59.216Z,22.25
2022-08-17T16:50:28.679Z,22.23
2022-08-17T16:53:06.649Z,22.13
2022-08-17T16:55:36.893Z,21.97
2022-08-17T16:58:08.905Z,21.82
2022-08-17T17:00:38.799Z,21.79
2022-08-17T17:03:19.239Z,21.73
2022-08-17T17:06:08.706Z,21.48
2022-08-17T17:08:44.887Z,21.35
2022-08-17T17:11:19.475Z,21.23
2022-08-17T17:13:57.979Z,21.30
2022-08-17T17:16:38.302Z,21.09
2022-08-17T17:19:18.047Z,21.30
2022-08-17T17:22:15.377Z,21.27
2022-08-17T17:25:02.573Z,21.28
2022-08-17T17:27:41.217Z,21.35
2022-08-17T17:30:25.857Z,21.21
2022-08-17T17:33:00.817Z,21.26
2022-08-17T17:35:36.959Z,21.29
2022-08-17T17:38:13.187Z,21.30
2022-08-17T17:40:45.890Z,21.26
2022-08-17T17:43:38.179Z,21.10
2022-08-17T17:46:27.140Z,21.24
2022-08-17T17:48:57.830Z,21.20
2022-08-17T17:52:09.525Z,21.05
2022-08-17T17:55:04.692Z,21.02
2022-08-17T17:57:55.986Z,20.97
2022-08-17T18:00:31.119Z,20.91
2022-08-17T18:03:25.726Z,20.92
2022-08-17T18:06:25.246Z,20.87
2022-08-17T18:09:19.332Z,20.80
2022-08-17T18:12:23.863Z,20.79
2022-08-17T18:15:21.914Z,20.73
2022-08-17T18:18:37.649Z,20.68
2022-08-17T18:21:16.924Z,20.65
2022-08-17T18:24:00.752Z,20.51
2022-08-17T18:26:44.934Z,20.57
2022-08-17T18:29:35.953Z,20.55
2022-08-17T18:32:31.590Z,20.49
2022-08-17T18:35:18.455Z,20.45
2022-08-17T18:37:51.412Z,20.26
2022-08-17T18:40:37.629Z,20.22
2022-08-17T18:43:15.000Z,20.16
2022-08-17T18:45:49.289Z,20.06
2022-08-17T18:48:30.440Z,19.98
2022-08-17T18:51:39.872Z,19.94
2022-08-17T18:54:20.313Z,19.86
2022-08-17T18:56:58.957Z,19.80
2022-08-17T18:59:39.059Z,19.71
2022-08-17T19:02:39.036Z,19.69
2022-08-17T19:05:29.006Z,19.62
2022-08-17T19:08:20.237Z,19.64
2022-08-17T19:10:54.351Z,19.55
2022-08-17T19:13:32.726Z,19.64
2022-08-17T19:16:14.069Z,19.65
2022-08-17T19:18:52.116Z,19.67
2022-08-17T19:21:26.860Z,19.63
2022-08-17T19:24:06.197Z,19.71
2022-08-17T19:26:54.009Z,19.61
2022-08-17T19:29:38.303Z,19.64
2022-08-17T19:32:10.563Z,19.66
2022-08-17T19:34:44.678Z,19.62
2022-08-17T19:37:26.508Z,19.44
2022-08-17T19:40:24.475Z,19.55
2022-08-17T19:43:16.151Z,19.50
2022-08-17T19:46:02.397Z,19.44
2022-08-17T19:48:48.418Z,19.43
2022-08-17T19:51:28.262Z,19.39
2022-08-17T19:54:06.914Z,19.38
2022-08-17T19:56:48.682Z,19.42
2022-08-17T19:59:27.863Z,19.34
2022-08-17T20:02:24.753Z,19.38
2022-08-17T20:04:58.018Z,19.44
2022-08-17T20:07:38.127Z,19.45
2022-08-17T20:10:12.220Z,19.41
2022-08-17T20:12:44.723Z,19.27
2022-08-17T20:15:25.718Z,19.39
2022-08-17T20:18:02.514Z,19.27
2022-08-17T20:20:46.734Z,19.47
2022-08-17T20:23:37.500Z,19.43
2022-08-17T20:26:19.597Z,19.42
2022-08-17T20:30:01.110Z,19.49
2022-08-17T20:32:33.060Z,19.41
2022-08-17T20:35:24.552Z,19.48
2022-08-17T20:37:59.346Z,19.51
2022-08-17T20:40:33.998Z,19.55
2022-08-17T20:43:46.229Z,19.57
2022-08-17T20:46:53.155Z,19.43
2022-08-17T20:49:33.091Z,19.60
2022-08-17T20:52:08.973Z,19.60
2022-08-17T20:54:51.884Z,19.62
2022-08-17T20:57:48.973Z,19.61
2022-08-17T21:00:45.780Z,19.59
2022-08-17T21:03:57.839Z,19.62
2022-08-17T21:06:27.509Z,19.60
2022-08-17T21:09:20.791Z,19.64
2022-08-17T21:12:05.430Z,19.60
2022-08-17T21:14:56.584Z,19.64
2022-08-17T21:17:44.058Z,19.70
2022-08-17T21:20:33.199Z,19.68
2022-08-17T21:23:33.818Z,19.74
2022-08-17T21:26:30.749Z,19.70
2022-08-17T21:29:30.905Z,19.63
2022-08-17T21:32:24.148Z,19.64
2022-08-17T21:35:28.823Z,19.55
2022-08-17T21:38:05.231Z,19.56
2022-08-17T21:40:36.304Z,19.35
2022-08-17T21:43:26.899Z,19.45
2022-08-17T21:46:05.483Z,19.38
2022-08-17T21:48:45.403Z,19.28
2022-08-17T21:51:23.967Z,19.27
2022-08-17T21:53:56.839Z,19.25
2022-08-17T21:56:30.941Z,19.27
2022-08-17T21:59:06.271Z,19.24
2022-08-17T22:01:37.534Z,19.16
2022-08-17T22:04:20.228Z,19.18
2022-08-17T22:06:57.269Z,19.13
2022-08-17T22:09:31.603Z,19.06
2022-08-17T22:12:07.432Z,18.83
2022-08-17T22:14:51.422Z,18.94
2022-08-17T22:17:26.447Z,19.00
2022-08-17T22:19:59.919Z,19.01
2022-08-17T22:22:56.079Z,18.98
2022-08-17T22:25:26.930Z,18.96
2022-08-17T22:28:00.327Z,19.04
2022-08-17T22:30:36.571Z,19.01
2022-08-17T22:33:36.318Z,19.03
2022-08-17T22:36:29.034Z,18.98
2022-08-17T22:39:02.218Z,19.04
2022-08-17T22:41:54.082Z,19.12
2022-08-17T22:44:29.613Z,19.06
2022-08-17T22:47:11.274Z,19.14
2022-08-17T22:49:53.557Z,19.14
2022-08-17T22:52:34.966Z,19.08
2022-08-17T22:55:32.393Z,19.11
2022-08-17T22:58:20.341Z,19.15
2022-08-17T23:00:51.149Z,19.22
2022-08-17T23:03:25.532Z,19.18
2022-08-17T23:06:06.667Z,19.21
2022-08-17T23:08:43.941Z,19.22
2022-08-17T23:11:14.352Z,19.27
2022-08-17T23:13:44.499Z,19.29
2022-08-17T23:16:14.967Z,19.23
2022-08-17T23:18:48.114Z,19.19
2022-08-17T23:21:26.698Z,19.23
2022-08-17T23:23:59.256Z,19.22
2022-08-17T23:26:30.074Z,19.25
2022-08-17T23:29:02.406Z,19.26
2022-08-17T23:31:34.735Z,19.21
2022-08-17T23:34:09.941Z,19.25
2022-08-17T23:36:39.865Z,19.14
2022-08-17T23:39:09.358Z,19.22
2022-08-17T23:41:41.040Z,19.25
2022-08-17T23:44:10.321Z,19.25
2022-08-17T23:46:39.526Z,19.24
2022-08-17T23:49:10.315Z,19.31
2022-08-17T23:51:42.586Z,19.22
2022-08-17T23:54:19.469Z,19.32
2022-08-17T23:56:51.230Z,19.34
2022-08-17T23:59:22.949Z,19.34
